sensor_id;sensor_type;location;lat;lon;timestamp;P1;durP1;ratioP1;P2;durP2;ratioP2
29206;SDS011;16247;50.840;4.382;2023-07-22T00:17:34;13.10;;;9.18;;
29206;SDS011;16247;50.840;4.382;2023-07-22T00:34:23;13.10;;;7.85;;
29206;SDS011;16247;50.840;4.382;2023-07-22T00:37:30;14.02;;;7.90;;
29206;SDS011;16247;50.840;4.382;2023-07-22T00:40:24;12.65;;;8.45;;
29206;SDS011;16247;50.840;4.382;2023-07-22T00:45:43;11.50;;;7.55;;
29206;SDS011;16247;50.840;4.382;2023-07-22T00:48:20;13.20;;;7.68;;
29206;SDS011;16247;50.840;4.382;2023-07-22T00:50:50;15.77;;;9.63;;
29206;SDS011;16247;50.840;4.382;2023-07-22T00:59:04;12.70;;;8.45;;
29206;SDS011;16247;50.840;4.382;2023-07-22T01:40:38;14.85;;;8.90;;
29206;SDS011;16247;50.840;4.382;2023-07-22T01:48:40;14.82;;;9.52;;
29206;SDS011;16247;50.840;4.382;2023-07-22T01:54:54;15.48;;;8.75;;
29206;SDS011;16247;50.840;4.382;2023-07-22T01:57:33;21.08;;;10.90;;
29206;SDS011;16247;50.840;4.382;2023-07-22T02:02:35;16.40;;;9.93;;
29206;SDS011;16247;50.840;4.382;2023-07-22T02:05:07;18.92;;;9.85;;
29206;SDS011;16247;50.840;4.382;2023-07-22T02:07:35;19.15;;;10.00;;
29206;SDS011;16247;50.840;4.382;2023-07-22T02:10:01;17.60;;;9.15;;
29206;SDS011;16247;50.840;4.382;2023-07-22T02:12:31;13.43;;;8.35;;
29206;SDS011;16247;50.840;4.382;2023-07-22T02:15:07;16.08;;;8.68;;
29206;SDS011;16247;50.840;4.382;2023-07-22T02:28:08;19.45;;;10.70;;
29206;SDS011;16247;50.840;4.382;2023-07-22T02:39:23;20.58;;;10.57;;
29206;SDS011;16247;50.840;4.382;2023-07-22T02:49:26;19.23;;;10.30;;
29206;SDS011;16247;50.840;4.382;2023-07-22T02:53:03;21.45;;;10.90;;
29206;SDS011;16247;50.840;4.382;2023-07-22T02:58:17;19.65;;;11.10;;
29206;SDS011;16247;50.840;4.382;2023-07-22T03:00:57;18.83;;;10.75;;
29206;SDS011;16247;50.840;4.382;2023-07-22T03:09:40;23.35;;;12.50;;
29206;SDS011;16247;50.840;4.382;2023-07-22T03:15:51;19.05;;;11.68;;
29206;SDS011;16247;50.840;4.382;2023-07-22T03:18:53;19.55;;;11.57;;
29206;SDS011;16247;50.840;4.382;2023-07-22T03:21:42;22.10;;;12.07;;
29206;SDS011;16247;50.840;4.382;2023-07-22T03:24:12;21.55;;;12.43;;
29206;SDS011;16247;50.840;4.382;2023-07-22T03:26:42;21.85;;;12.13;;
29206;SDS011;16247;50.840;4.382;2023-07-22T03:29:12;31.73;;;12.93;;
29206;SDS011;16247;50.840;4.382;2023-07-22T03:32:03;23.42;;;12.40;;
29206;SDS011;16247;50.840;4.382;2023-07-22T03:34:32;24.05;;;12.18;;
29206;SDS011;16247;50.840;4.382;2023-07-22T03:37:06;23.35;;;12.10;;
29206;SDS011;16247;50.840;4.382;2023-07-22T03:39:33;22.58;;;12.82;;
29206;SDS011;16247;50.840;4.382;2023-07-22T03:42:10;22.95;;;12.52;;
29206;SDS011;16247;50.840;4.382;2023-07-22T03:45:00;21.08;;;12.00;;
29206;SDS011;16247;50.840;4.382;2023-07-22T03:47:28;26.02;;;12.07;;
29206;SDS011;16247;50.840;4.382;2023-07-22T03:49:56;24.17;;;12.52;;
29206;SDS011;16247;50.840;4.382;2023-07-22T03:57:54;27.75;;;12.73;;
29206;SDS011;16247;50.840;4.382;2023-07-22T04:00:35;23.60;;;11.88;;
29206;SDS011;16247;50.840;4.382;2023-07-22T04:03:12;18.38;;;10.85;;
29206;SDS011;16247;50.840;4.382;2023-07-22T04:05:41;20.08;;;10.95;;
29206;SDS011;16247;50.840;4.382;2023-07-22T04:08:12;20.88;;;10.50;;
29206;SDS011;16247;50.840;4.382;2023-07-22T04:10:39;18.77;;;10.13;;
29206;SDS011;16247;50.840;4.382;2023-07-22T04:16:28;22.50;;;11.30;;
29206;SDS011;16247;50.840;4.382;2023-07-22T04:21:26;18.58;;;11.57;;
29206;SDS011;16247;50.840;4.382;2023-07-22T04:24:01;23.67;;;11.32;;
29206;SDS011;16247;50.840;4.382;2023-07-22T04:26:31;27.70;;;10.82;;
29206;SDS011;16247;50.840;4.382;2023-07-22T04:28:59;19.45;;;11.38;;
29206;SDS011;16247;50.840;4.382;2023-07-22T04:31:25;21.83;;;11.00;;
29206;SDS011;16247;50.840;4.382;2023-07-22T04:33:54;22.63;;;11.15;;
29206;SDS011;16247;50.840;4.382;2023-07-22T04:36:20;24.00;;;12.32;;
29206;SDS011;16247;50.840;4.382;2023-07-22T04:38:46;21.50;;;11.32;;
29206;SDS011;16247;50.840;4.382;2023-07-22T04:41:14;22.90;;;11.23;;
29206;SDS011;16247;50.840;4.382;2023-07-22T04:43:42;19.13;;;10.45;;
29206;SDS011;16247;50.840;4.382;2023-07-22T04:46:07;21.85;;;11.20;;
29206;SDS011;16247;50.840;4.382;2023-07-22T04:55:00;21.63;;;11.45;;
29206;SDS011;16247;50.840;4.382;2023-07-22T04:57:46;20.48;;;11.40;;
29206;SDS011;16247;50.840;4.382;2023-07-22T05:00:17;22.98;;;10.70;;
29206;SDS011;16247;50.840;4.382;2023-07-22T05:02:44;20.50;;;10.93;;
29206;SDS011;16247;50.840;4.382;2023-07-22T05:29:09;21.05;;;9.38;;
29206;SDS011;16247;50.840;4.382;2023-07-22T05:34:33;23.58;;;11.80;;
29206;SDS011;16247;50.840;4.382;2023-07-22T05:37:14;18.08;;;9.13;;
29206;SDS011;16247;50.840;4.382;2023-07-22T05:39:55;22.95;;;9.73;;
29206;SDS011;16247;50.840;4.382;2023-07-22T05:42:28;18.20;;;10.20;;
29206;SDS011;16247;50.840;4.382;2023-07-22T05:44:57;25.67;;;9.38;;
29206;SDS011;16247;50.840;4.382;2023-07-22T05:47:23;16.42;;;8.55;;
29206;SDS011;16247;50.840;4.382;2023-07-22T05:49:49;15.95;;;8.00;;
29206;SDS011;16247;50.840;4.382;2023-07-22T05:52:15;16.63;;;7.97;;
29206;SDS011;16247;50.840;4.382;2023-07-22T05:54:40;16.25;;;8.85;;
29206;SDS011;16247;50.840;4.382;2023-07-22T05:57:06;17.40;;;8.48;;
29206;SDS011;16247;50.840;4.382;2023-07-22T05:59:32;12.95;;;8.05;;
29206;SDS011;16247;50.840;4.382;2023-07-22T06:01:57;19.60;;;8.15;;
29206;SDS011;16247;50.840;4.382;2023-07-22T06:04:23;16.38;;;8.07;;
29206;SDS011;16247;50.840;4.382;2023-07-22T06:06:49;25.35;;;7.45;;
29206;SDS011;16247;50.840;4.382;2023-07-22T06:09:14;16.30;;;7.72;;
29206;SDS011;16247;50.840;4.382;2023-07-22T06:11:40;15.93;;;7.28;;
29206;SDS011;16247;50.840;4.382;2023-07-22T06:14:05;14.80;;;7.10;;
29206;SDS011;16247;50.840;4.382;2023-07-22T06:16:33;18.03;;;8.23;;
29206;SDS011;16247;50.840;4.382;2023-07-22T06:18:58;14.63;;;8.02;;
29206;SDS011;16247;50.840;4.382;2023-07-22T06:21:24;12.90;;;7.15;;
29206;SDS011;16247;50.840;4.382;2023-07-22T06:23:50;19.70;;;7.32;;
29206;SDS011;16247;50.840;4.382;2023-07-22T06:26:15;10.82;;;7.05;;
29206;SDS011;16247;50.840;4.382;2023-07-22T06:28:41;18.25;;;6.85;;
29206;SDS011;16247;50.840;4.382;2023-07-22T06:31:07;18.95;;;7.22;;
29206;SDS011;16247;50.840;4.382;2023-07-22T06:33:34;14.38;;;7.22;;
29206;SDS011;16247;50.840;4.382;2023-07-22T06:35:59;13.43;;;7.20;;
29206;SDS011;16247;50.840;4.382;2023-07-22T06:38:25;16.48;;;7.55;;
29206;SDS011;16247;50.840;4.382;2023-07-22T06:40:52;13.52;;;6.72;;
29206;SDS011;16247;50.840;4.382;2023-07-22T06:43:18;14.30;;;6.40;;
29206;SDS011;16247;50.840;4.382;2023-07-22T06:45:44;15.00;;;6.90;;
29206;SDS011;16247;50.840;4.382;2023-07-22T06:48:10;11.50;;;7.40;;
29206;SDS011;16247;50.840;4.382;2023-07-22T06:50:35;14.02;;;6.60;;
29206;SDS011;16247;50.840;4.382;2023-07-22T06:53:01;11.13;;;6.97;;
29206;SDS011;16247;50.840;4.382;2023-07-22T06:55:27;17.38;;;7.15;;
29206;SDS011;16247;50.840;4.382;2023-07-22T06:57:55;11.80;;;6.57;;
29206;SDS011;16247;50.840;4.382;2023-07-22T07:00:21;11.50;;;6.22;;
29206;SDS011;16247;50.840;4.382;2023-07-22T07:02:47;13.20;;;6.82;;
29206;SDS011;16247;50.840;4.382;2023-07-22T07:05:12;13.93;;;7.10;;
29206;SDS011;16247;50.840;4.382;2023-07-22T07:07:38;11.23;;;6.53;;
29206;SDS011;16247;50.840;4.382;2023-07-22T07:10:04;16.20;;;6.78;;
29206;SDS011;16247;50.840;4.382;2023-07-22T07:12:31;17.25;;;6.53;;
29206;SDS011;16247;50.840;4.382;2023-07-22T10:09:52;3.95;;;1.77;;
29206;SDS011;16247;50.840;4.382;2023-07-22T11:10:54;8.02;;;2.00;;
29206;SDS011;16247;50.840;4.382;2023-07-22T11:16:44;4.03;;;2.13;;
29206;SDS011;16247;50.840;4.382;2023-07-22T11:48:20;2.63;;;1.65;;
29206;SDS011;16247;50.840;4.382;2023-07-22T14:57:19;6.45;;;2.75;;
29206;SDS011;16247;50.840;4.382;2023-07-22T14:59:44;5.97;;;1.60;;
29206;SDS011;16247;50.840;4.382;2023-07-22T15:02:11;3.03;;;2.05;;
29206;SDS011;16247;50.840;4.382;2023-07-22T15:04:37;7.22;;;2.08;;
29206;SDS011;16247;50.840;4.382;2023-07-22T15:07:03;5.10;;;1.80;;
29206;SDS011;16247;50.840;4.382;2023-07-22T15:09:28;3.47;;;1.67;;
29206;SDS011;16247;50.840;4.382;2023-07-22T15:11:55;5.80;;;1.60;;
29206;SDS011;16247;50.840;4.382;2023-07-22T15:14:21;5.07;;;1.85;;
29206;SDS011;16247;50.840;4.382;2023-07-22T15:16:47;4.15;;;1.90;;
29206;SDS011;16247;50.840;4.382;2023-07-22T15:19:12;6.13;;;2.20;;
29206;SDS011;16247;50.840;4.382;2023-07-22T15:21:39;3.05;;;1.58;;
29206;SDS011;16247;50.840;4.382;2023-07-22T15:24:04;6.65;;;1.80;;
29206;SDS011;16247;50.840;4.382;2023-07-22T15:26:30;4.63;;;1.92;;
29206;SDS011;16247;50.840;4.382;2023-07-22T15:28:56;6.43;;;1.85;;
29206;SDS011;16247;50.840;4.382;2023-07-22T15:31:21;4.32;;;1.85;;
29206;SDS011;16247;50.840;4.382;2023-07-22T15:33:48;4.63;;;1.98;;
29206;SDS011;16247;50.840;4.382;2023-07-22T15:36:14;9.82;;;2.05;;
29206;SDS011;16247;50.840;4.382;2023-07-22T15:38:40;2.33;;;1.67;;
29206;SDS011;16247;50.840;4.382;2023-07-22T15:41:06;5.97;;;1.60;;
29206;SDS011;16247;50.840;4.382;2023-07-22T15:43:32;4.93;;;1.63;;
29206;SDS011;16247;50.840;4.382;2023-07-22T15:45:58;3.13;;;1.83;;
29206;SDS011;16247;50.840;4.382;2023-07-22T15:48:24;3.10;;;1.90;;
29206;SDS011;16247;50.840;4.382;2023-07-22T15:50:50;3.58;;;1.55;;
29206;SDS011;16247;50.840;4.382;2023-07-22T15:53:16;3.38;;;2.00;;
29206;SDS011;16247;50.840;4.382;2023-07-22T15:55:41;4.55;;;1.85;;
29206;SDS011;16247;50.840;4.382;2023-07-22T15:58:07;4.10;;;1.98;;
29206;SDS011;16247;50.840;4.382;2023-07-22T16:00:33;4.15;;;2.17;;
29206;SDS011;16247;50.840;4.382;2023-07-22T16:02:59;5.88;;;2.22;;
29206;SDS011;16247;50.840;4.382;2023-07-22T16:05:25;5.15;;;1.98;;
29206;SDS011;16247;50.840;4.382;2023-07-22T16:07:51;4.85;;;2.72;;
29206;SDS011;16247;50.840;4.382;2023-07-22T16:10:16;3.28;;;1.90;;
29206;SDS011;16247;50.840;4.382;2023-07-22T16:12:42;4.45;;;2.58;;
29206;SDS011;16247;50.840;4.382;2023-07-22T16:15:08;5.47;;;2.42;;
